Time;durP1;ratioP1;P1;durP2;ratioP2;P2;SDS_P1;SDS_P2;PMS_P1;PMS_P2;Temp;Humidity;BMP_temperature;BMP_pressure;BME280_temperature;BME280_humidity;BME280_pressure;Samples;Min_cycle;Max_cycle;Signal;HPM_P1;HPM_P2
2022/12/16 00:01:21;;;;;;;30.05;16.40;;;0.20;75.20;;;;;;5052220;28;20205;-64
2022/12/16 00:03:51;;;;;;;31.48;16.10;;;0.20;75.20;;;;;;5052696;28;20212;-64
2022/12/16 00:06:23;;;;;;;32.47;16.63;;;0.20;75.30;;;;;;5051387;28;20202;-64
2022/12/16 00:08:51;;;;;;;28.90;16.05;;;0.20;75.30;;;;;;5049775;28;20853;-64
2022/12/16 00:11:20;;;;;;;32.97;17.27;;;0.20;75.20;;;;;;5055287;28;20192;-65
2022/12/16 00:13:48;;;;;;;28.23;16.55;;;0.20;75.20;;;;;;5053825;28;20294;-64
2022/12/16 00:16:19;;;;;;;30.00;16.48;;;0.20;75.30;;;;;;5052550;28;20215;-64
2022/12/16 00:18:48;;;;;;;29.13;16.13;;;0.20;75.30;;;;;;5051580;28;20247;-63
2022/12/16 00:21:19;;;;;;;31.33;17.08;;;0.20;75.30;;;;;;5048975;28;20207;-65
2022/12/16 00:23:47;;;;;;;25.58;15.35;;;0.20;75.30;;;;;;5049212;28;20636;-65
2022/12/16 00:26:16;;;;;;;24.70;14.20;;;0.20;75.30;;;;;;5050793;28;20989;-65
2022/12/16 00:28:43;;;;;;;25.58;13.15;;;0.20;75.30;;;;;;5054039;28;20696;-65
2022/12/16 00:31:12;;;;;;;25.80;13.20;;;0.20;75.10;;;;;;5051776;28;20246;-65
2022/12/16 00:33:41;;;;;;;20.20;11.82;;;0.20;75.20;;;;;;5052857;28;20211;-65
2022/12/16 00:36:10;;;;;;;20.92;12.25;;;0.20;75.20;;;;;;5051963;28;20216;-65
2022/12/16 00:38:38;;;;;;;21.77;12.10;;;0.20;75.30;;;;;;5051009;28;20886;-65
2022/12/16 00:41:06;;;;;;;23.55;12.13;;;0.20;75.30;;;;;;5052390;28;20622;-64
2022/12/16 00:43:34;;;;;;;21.05;10.10;;;0.20;75.30;;;;;;5052885;28;20192;-65
2022/12/16 00:46:03;;;;;;;19.50;9.93;;;0.20;75.30;;;;;;5050879;28;20200;-65
2022/12/16 00:48:31;;;;;;;18.80;10.50;;;0.20;75.20;;;;;;5051096;28;20223;-65
2022/12/16 00:51:00;;;;;;;17.65;10.15;;;0.20;75.20;;;;;;5051724;28;20192;-65
2022/12/16 00:53:28;;;;;;;16.83;9.90;;;0.20;75.20;;;;;;5053227;28;20207;-65
2022/12/16 00:56:02;;;;;;;22.40;9.75;;;0.20;75.20;;;;;;5051643;28;20781;-65
2022/12/16 00:58:30;;;;;;;18.85;10.10;;;0.20;75.20;;;;;;5050765;28;20227;-64
2022/12/16 01:00:58;;;;;;;19.55;10.20;;;0.20;75.20;;;;;;5052874;28;20238;-64
2022/12/16 01:03:26;;;;;;;19.88;10.40;;;0.20;75.20;;;;;;5049993;28;20205;-65
2022/12/16 01:05:54;;;;;;;22.10;10.60;;;0.20;75.20;;;;;;5047998;28;20208;-65
2022/12/16 01:08:23;;;;;;;28.58;10.98;;;0.20;75.20;;;;;;5053344;28;20302;-65
2022/12/16 01:10:52;;;;;;;20.48;11.10;;;0.20;75.20;;;;;;5053550;28;20204;-64
2022/12/16 01:13:24;;;;;;;23.55;10.80;;;0.20;75.10;;;;;;5055081;28;20193;-64
2022/12/16 01:15:52;;;;;;;16.35;9.65;;;0.20;75.10;;;;;;5050685;28;20212;-64
2022/12/16 01:18:21;;;;;;;20.85;11.30;;;0.20;75.10;;;;;;5050603;28;20275;-65
2022/12/16 01:20:49;;;;;;;16.25;9.48;;;0.20;75.10;;;;;;5054707;28;20200;-65
2022/12/16 01:23:17;;;;;;;16.23;9.68;;;0.20;75.10;;;;;;5058299;28;20310;-65
2022/12/16 01:25:51;;;;;;;17.35;10.65;;;0.20;75.10;;;;;;5053501;28;20247;-65
2022/12/16 01:28:19;;;;;;;25.58;11.80;;;0.20;75.00;;;;;;5056833;28;20227;-64
2022/12/16 01:30:47;;;;;;;16.50;10.15;;;0.20;75.00;;;;;;5054591;28;20342;-65
2022/12/16 01:33:16;;;;;;;17.27;10.25;;;0.10;74.90;;;;;;5053125;28;20602;-65
2022/12/16 01:35:44;;;;;;;18.65;10.38;;;0.10;74.90;;;;;;5053967;28;20277;-65
2022/12/16 01:38:23;;;;;;;18.50;10.00;;;0.10;74.90;;;;;;5056474;28;20220;-64
2022/12/16 01:40:52;;;;;;;18.45;10.25;;;0.10;75.00;;;;;;5058657;28;20204;-65
2022/12/16 01:43:26;;;;;;;20.20;10.88;;;0.10;75.00;;;;;;5055524;28;20677;-65
2022/12/16 01:45:59;;;;;;;20.25;10.27;;;0.10;75.00;;;;;;5056045;28;20192;-65
2022/12/16 01:48:35;;;;;;;18.67;10.55;;;0.10;74.90;;;;;;5054515;28;20250;-65
2022/12/16 01:51:07;;;;;;;20.50;10.95;;;0.10;74.90;;;;;;5059124;28;20200;-65
2022/12/16 01:53:37;;;;;;;25.92;12.27;;;0.10;74.90;;;;;;5055091;28;20282;-65
2022/12/16 01:56:07;;;;;;;18.80;10.32;;;0.10;75.00;;;;;;5051262;28;20200;-64
2022/12/16 01:58:40;;;;;;;19.98;11.68;;;0.10;75.00;;;;;;5054524;28;20598;-65
2022/12/16 02:01:08;;;;;;;20.88;10.82;;;0.10;75.00;;;;;;5059368;28;20673;-65
2022/12/16 02:03:37;;;;;;;20.23;10.38;;;0.10;75.00;;;;;;5057316;28;20291;-65
2022/12/16 02:06:07;;;;;;;19.58;10.35;;;0.10;75.00;;;;;;5056044;28;20246;-65
2022/12/16 02:08:35;;;;;;;19.30;10.27;;;0.10;75.00;;;;;;5057612;28;20220;-65
2022/12/16 02:11:27;;;;;;;20.40;12.25;;;0.10;75.00;;;;;;5058820;28;20702;-65
2022/12/16 02:14:31;;;;;;;18.42;10.32;;;0.10;75.10;;;;;;5055708;28;20208;-65
2022/12/16 02:17:06;;;;;;;16.23;9.23;;;0.10;75.10;;;;;;5053561;28;20270;-65
2022/12/16 02:20:06;;;;;;;17.50;8.85;;;0.10;75.10;;;;;;5047792;28;20228;-65
2022/12/16 02:22:51;;;;;;;18.58;10.10;;;0.10;75.10;;;;;;5056174;28;20250;-65
2022/12/16 02:25:46;;;;;;;16.23;9.00;;;0.10;75.10;;;;;;5055679;28;20246;-65
2022/12/16 02:28:23;;;;;;;18.02;9.43;;;0.10;75.10;;;;;;5054539;28;20264;-65
2022/12/16 02:31:10;;;;;;;16.70;9.13;;;0.00;75.10;;;;;;5055525;28;20232;-65
2022/12/16 02:33:54;;;;;;;16.98;8.50;;;0.10;75.10;;;;;;5053890;28;20224;-65
2022/12/16 02:36:32;;;;;;;17.63;9.50;;;0.00;75.10;;;;;;5051779;28;20273;-65
2022/12/16 02:39:05;;;;;;;15.13;9.10;;;0.00;75.10;;;;;;5050933;28;20228;-65
2022/12/16 02:41:42;;;;;;;20.02;10.82;;;0.00;75.10;;;;;;5051431;28;20250;-65
2022/12/16 02:44:12;;;;;;;18.17;10.07;;;0.00;75.10;;;;;;5050592;28;20203;-65
2022/12/16 02:46:43;;;;;;;18.80;11.02;;;0.00;75.00;;;;;;5050857;28;20224;-65
2022/12/16 02:49:45;;;;;;;17.98;10.75;;;0.00;75.10;;;;;;5051345;28;20287;-65
2022/12/16 02:52:14;;;;;;;16.92;9.60;;;0.00;75.10;;;;;;5054464;28;20211;-65
2022/12/16 02:54:43;;;;;;;20.50;10.00;;;0.00;75.10;;;;;;5053542;28;20204;-65
2022/12/16 02:57:23;;;;;;;18.45;8.90;;;0.00;75.10;;;;;;5053410;28;20286;-64
2022/12/16 03:00:00;;;;;;;19.30;8.98;;;0.00;75.00;;;;;;5054890;28;20258;-65
2022/12/16 03:02:35;;;;;;;16.58;9.45;;;0.00;75.10;;;;;;5056156;28;20217;-65
2022/12/16 03:05:09;;;;;;;16.70;9.10;;;0.00;75.10;;;;;;5053442;28;20199;-65
2022/12/16 03:07:40;;;;;;;16.63;9.13;;;0.00;75.10;;;;;;5053841;28;20196;-65
2022/12/16 03:10:13;;;;;;;16.45;8.90;;;0.00;75.00;;;;;;5053647;28;20257;-65
2022/12/16 03:12:43;;;;;;;16.50;9.48;;;0.00;75.10;;;;;;5051162;28;20193;-65
2022/12/16 03:15:15;;;;;;;17.85;9.82;;;0.00;75.10;;;;;;5051222;28;20681;-65
2022/12/16 03:17:46;;;;;;;15.27;8.63;;;0.00;75.10;;;;;;5053960;28;20232;-64
2022/12/16 03:20:19;;;;;;;17.10;8.27;;;0.00;75.20;;;;;;5053925;28;20203;-65
2022/12/16 03:22:50;;;;;;;14.27;8.95;;;0.00;75.20;;;;;;5051074;28;20542;-64
2022/12/16 03:25:19;;;;;;;15.40;8.65;;;0.00;75.20;;;;;;5050615;28;20212;-65
2022/12/16 03:27:55;;;;;;;13.80;8.80;;;0.00;75.20;;;;;;5052588;28;20247;-65
2022/12/16 03:30:29;;;;;;;13.45;8.20;;;0.00;75.20;;;;;;5056425;28;20218;-66
2022/12/16 03:33:02;;;;;;;12.23;6.88;;;0.00;75.10;;;;;;5054872;28;20276;-65
2022/12/16 03:35:36;;;;;;;14.80;7.80;;;0.00;75.20;;;;;;5055910;28;20200;-64
2022/12/16 03:38:06;;;;;;;13.25;7.53;;;0.00;75.20;;;;;;5052115;28;20231;-65
2022/12/16 03:40:36;;;;;;;14.23;6.85;;;0.00;75.20;;;;;;5056444;28;20261;-64
2022/12/16 03:43:06;;;;;;;12.35;7.30;;;0.00;75.10;;;;;;5053578;28;20228;-65
2022/12/16 03:45:38;;;;;;;11.25;6.70;;;0.00;75.10;;;;;;5052659;28;20200;-65
2022/12/16 03:48:10;;;;;;;12.25;6.35;;;0.00;75.10;;;;;;5057245;28;20232;-65
2022/12/16 03:50:39;;;;;;;12.80;7.13;;;0.00;75.10;;;;;;5050190;28;20590;-65
2022/12/16 03:53:07;;;;;;;13.48;6.97;;;0.00;75.00;;;;;;5057920;28;20219;-65
2022/12/16 03:55:35;;;;;;;11.25;6.43;;;-0.10;74.90;;;;;;5052608;28;20280;-65
2022/12/16 03:58:04;;;;;;;16.30;8.65;;;-0.10;74.90;;;;;;5056118;28;20285;-65
2022/12/16 04:00:32;;;;;;;15.07;7.32;;;-0.10;74.90;;;;;;5050430;28;20205;-65
2022/12/16 04:03:00;;;;;;;13.38;6.93;;;-0.10;74.80;;;;;;5050855;28;20211;-65
2022/12/16 04:05:29;;;;;;;15.85;8.38;;;-0.20;74.60;;;;;;5053163;28;20201;-65
2022/12/16 04:07:57;;;;;;;12.27;6.85;;;-0.20;74.60;;;;;;5059381;28;20224;-64
2022/12/16 04:24:21;;;;;;;14.75;8.20;;;-0.40;74.60;;;;;;5054491;28;20223;-65
2022/12/16 04:32:24;;;;;;;14.50;7.07;;;-0.50;74.60;;;;;;5054519;28;20214;-65
2022/12/16 04:34:51;;;;;;;17.65;8.38;;;-0.50;74.50;;;;;;5058316;28;20211;-65
